Time;durP1;ratioP1;P1;durP2;ratioP2;P2;SDS_P1;SDS_P2;PMS_P1;PMS_P2;Temp;Humidity;BMP_temperature;BMP_pressure;BME280_temperature;BME280_humidity;BME280_pressure;Samples;Min_cycle;Max_cycle;Signal;HPM_P1;HPM_P2
2021/07/16 00:02:10;;;;;;;7.73;4.43;;;16.40;99.90;;;;;;4983208;28;20257;-72
2021/07/16 00:04:36;;;;;;;6.73;4.03;;;16.40;99.90;;;;;;4989382;28;20567;-72
2021/07/16 00:07:01;;;;;;;6.90;4.40;;;16.40;99.90;;;;;;4980304;28;20218;-72
2021/07/16 00:09:27;;;;;;;6.80;4.87;;;16.40;99.90;;;;;;4989765;28;20232;-71
2021/07/16 00:11:53;;;;;;;6.73;3.90;;;16.30;99.90;;;;;;4980437;28;20185;-75
2021/07/16 00:14:19;;;;;;;6.23;3.83;;;16.30;99.90;;;;;;4986687;28;20262;-73
2021/07/16 00:16:44;;;;;;;8.00;5.50;;;16.30;99.90;;;;;;4984457;28;20193;-72
2021/07/16 00:19:10;;;;;;;9.50;5.40;;;16.20;99.90;;;;;;4987180;28;20429;-73
2021/07/16 00:21:36;;;;;;;10.33;5.10;;;16.20;99.90;;;;;;4990317;28;20205;-72
2021/07/16 00:24:02;;;;;;;7.03;5.17;;;16.20;99.90;;;;;;4989485;28;20196;-73
2021/07/16 00:26:29;;;;;;;9.70;5.60;;;16.20;99.90;;;;;;4981184;28;20183;-72
2021/07/16 00:28:55;;;;;;;7.13;4.30;;;16.10;99.90;;;;;;4985526;28;20425;-71
2021/07/16 00:31:21;;;;;;;12.00;4.80;;;16.10;99.90;;;;;;4994010;28;20543;-71
2021/07/16 00:33:46;;;;;;;5.43;3.93;;;16.10;99.90;;;;;;4994382;28;20428;-72
2021/07/16 00:36:12;;;;;;;7.07;4.27;;;16.10;99.90;;;;;;4994583;28;20195;-73
2021/07/16 00:38:38;;;;;;;5.27;3.70;;;16.10;99.90;;;;;;5001829;28;20502;-72
2021/07/16 00:41:04;;;;;;;4.47;3.60;;;16.10;99.90;;;;;;4997108;28;20352;-72
2021/07/16 00:43:30;;;;;;;6.37;4.67;;;16.00;99.90;;;;;;4996378;28;20183;-71
2021/07/16 00:45:56;;;;;;;6.93;4.20;;;16.00;99.90;;;;;;4991980;28;20476;-71
2021/07/16 00:48:22;;;;;;;8.03;4.20;;;15.90;99.90;;;;;;5000386;28;20708;-70
2021/07/16 00:50:49;;;;;;;6.73;4.90;;;15.90;99.90;;;;;;4995657;28;20800;-71
2021/07/16 00:53:18;;;;;;;6.33;4.30;;;15.90;99.90;;;;;;5000164;28;20191;-71
2021/07/16 00:55:46;;;;;;;8.87;4.40;;;15.90;99.90;;;;;;4999935;28;20494;-72
2021/07/16 00:58:12;;;;;;;11.40;5.53;;;15.90;99.90;;;;;;4995711;28;20452;-72
2021/07/16 01:00:39;;;;;;;7.37;4.90;;;15.90;99.90;;;;;;4991948;28;20461;-72
2021/07/16 01:03:04;;;;;;;7.10;4.43;;;15.90;99.90;;;;;;4998098;28;20418;-73
2021/07/16 01:05:31;;;;;;;7.03;5.20;;;15.90;99.90;;;;;;4995304;28;20470;-71
2021/07/16 01:07:58;;;;;;;7.87;4.60;;;16.00;99.90;;;;;;4993403;28;20398;-72
2021/07/16 01:10:25;;;;;;;7.60;4.80;;;16.00;99.90;;;;;;5000511;28;20426;-72
2021/07/16 01:12:52;;;;;;;7.33;4.97;;;16.00;99.90;;;;;;4999723;28;20568;-72
2021/07/16 01:15:26;;;;;;;8.87;4.60;;;15.90;99.90;;;;;;4992715;28;20445;-72
2021/07/16 01:17:52;;;;;;;6.20;4.33;;;15.90;99.90;;;;;;4995686;28;20550;-72
2021/07/16 01:20:29;;;;;;;6.90;4.27;;;15.90;99.90;;;;;;4998880;28;20457;-71
2021/07/16 01:22:57;;;;;;;6.23;4.40;;;15.90;99.90;;;;;;4995841;28;20417;-73
2021/07/16 01:25:29;;;;;;;9.47;5.13;;;16.00;99.90;;;;;;4997689;28;20450;-72
2021/07/16 01:27:57;;;;;;;7.60;4.63;;;16.00;99.90;;;;;;4990689;28;20423;-72
2021/07/16 01:30:26;;;;;;;9.77;5.10;;;15.90;99.90;;;;;;4995017;28;20418;-72
2021/07/16 01:32:52;;;;;;;7.43;4.43;;;15.90;99.90;;;;;;4987814;28;20472;-71
2021/07/16 01:35:19;;;;;;;8.10;4.60;;;15.90;99.90;;;;;;4987932;28;20851;-71
2021/07/16 01:37:46;;;;;;;9.47;5.27;;;16.00;99.90;;;;;;4986370;28;20429;-71
2021/07/16 01:40:14;;;;;;;6.80;4.70;;;15.90;99.90;;;;;;4992063;28;20449;-72
2021/07/16 01:42:56;;;;;;;8.17;4.60;;;16.00;99.90;;;;;;4990189;28;20460;-71
2021/07/16 01:45:29;;;;;;;7.20;5.20;;;16.00;99.90;;;;;;4985613;28;20502;-72
2021/07/16 01:47:58;;;;;;;6.90;4.47;;;15.90;99.90;;;;;;4989969;28;20424;-72
2021/07/16 01:50:26;;;;;;;9.73;5.50;;;15.90;99.90;;;;;;4990019;28;20476;-71
2021/07/16 01:52:54;;;;;;;8.17;5.20;;;15.90;99.90;;;;;;4984503;28;20430;-71
2021/07/16 01:55:21;;;;;;;9.03;5.33;;;16.00;99.90;;;;;;4985125;28;20468;-71
2021/07/16 01:57:49;;;;;;;7.50;5.00;;;16.00;99.90;;;;;;4991506;28;20441;-71
2021/07/16 02:00:17;;;;;;;10.10;5.47;;;16.10;99.90;;;;;;4991764;28;20493;-71
2021/07/16 02:02:51;;;;;;;8.70;5.17;;;16.10;99.90;;;;;;4992405;28;20838;-73
2021/07/16 02:05:18;;;;;;;7.00;5.30;;;16.10;99.90;;;;;;4990709;28;20459;-73
2021/07/16 02:07:50;;;;;;;10.90;6.40;;;16.10;99.90;;;;;;4985666;28;20810;-71
2021/07/16 02:10:17;;;;;;;13.97;6.40;;;16.10;99.90;;;;;;4987043;28;20849;-72
2021/07/16 02:12:43;;;;;;;9.43;4.90;;;16.10;99.90;;;;;;4991555;28;20433;-72
2021/07/16 02:15:17;;;;;;;8.50;5.00;;;16.20;99.90;;;;;;4987778;28;20445;-72
2021/07/16 02:17:44;;;;;;;5.47;4.30;;;16.10;99.60;;;;;;4989946;28;20425;-72
2021/07/16 02:20:22;;;;;;;6.67;3.97;;;16.00;99.50;;;;;;4991516;28;20785;-71
2021/07/16 02:22:48;;;;;;;6.33;4.20;;;16.00;99.30;;;;;;4988734;28;20422;-71
2021/07/16 02:25:15;;;;;;;6.07;3.83;;;15.90;99.20;;;;;;4980928;28;20550;-72
2021/07/16 02:27:52;;;;;;;7.03;3.80;;;15.80;99.30;;;;;;4988220;28;20500;-72
2021/07/16 02:30:19;;;;;;;8.10;4.57;;;15.70;99.40;;;;;;4990338;28;20414;-72
2021/07/16 02:32:46;;;;;;;9.80;4.40;;;15.70;99.50;;;;;;4982547;28;20847;-71
2021/07/16 02:35:13;;;;;;;7.13;5.27;;;15.70;99.70;;;;;;4986189;28;20964;-71
2021/07/16 02:37:39;;;;;;;6.73;4.80;;;15.70;99.90;;;;;;4985217;28;20414;-71
2021/07/16 02:40:08;;;;;;;7.27;4.60;;;15.70;99.90;;;;;;4990934;28;20418;-70
2021/07/16 02:42:34;;;;;;;7.73;4.93;;;15.60;99.90;;;;;;4984867;28;20415;-74
2021/07/16 02:45:02;;;;;;;6.37;3.90;;;15.60;99.90;;;;;;4986048;28;20466;-72
2021/07/16 02:47:28;;;;;;;7.97;4.47;;;15.60;99.90;;;;;;4983187;28;20453;-71
2021/07/16 02:49:54;;;;;;;6.37;4.37;;;15.60;99.80;;;;;;4991204;28;21057;-71
2021/07/16 02:52:19;;;;;;;7.20;4.43;;;15.70;99.90;;;;;;4988676;28;20383;-72
2021/07/16 02:54:45;;;;;;;7.00;4.07;;;15.70;99.90;;;;;;4985166;28;20221;-70
2021/07/16 02:57:11;;;;;;;6.37;4.10;;;15.70;99.80;;;;;;4989892;28;20233;-71
2021/07/16 02:59:36;;;;;;;8.70;4.83;;;15.70;99.50;;;;;;4982404;28;20186;-71
2021/07/16 03:02:05;;;;;;;9.27;4.60;;;15.70;99.60;;;;;;4985500;28;20210;-73
2021/07/16 03:04:31;;;;;;;6.83;4.27;;;15.70;99.60;;;;;;4989827;28;20199;-72
2021/07/16 03:06:56;;;;;;;9.17;4.20;;;15.60;99.70;;;;;;4981448;28;20785;-71
2021/07/16 03:09:23;;;;;;;6.20;4.43;;;15.70;99.60;;;;;;4988015;28;20425;-72
2021/07/16 03:11:48;;;;;;;9.50;5.37;;;15.60;99.50;;;;;;4984752;28;20187;-72
2021/07/16 03:14:14;;;;;;;7.60;4.60;;;15.60;99.70;;;;;;4984644;28;20468;-73
2021/07/16 03:16:40;;;;;;;8.40;4.03;;;15.60;99.80;;;;;;4990177;28;20245;-73
2021/07/16 03:19:06;;;;;;;8.13;4.40;;;15.60;99.90;;;;;;4986874;28;20182;-72
2021/07/16 03:21:33;;;;;;;6.50;4.40;;;15.60;99.80;;;;;;4980739;28;20217;-72
2021/07/16 03:23:59;;;;;;;6.90;4.63;;;15.60;99.70;;;;;;4984596;28;20948;-72
2021/07/16 03:26:25;;;;;;;6.07;4.20;;;15.50;99.70;;;;;;4985284;28;20461;-72
2021/07/16 03:28:50;;;;;;;7.37;4.47;;;15.50;99.90;;;;;;4990363;28;20525;-73
2021/07/16 03:31:16;;;;;;;6.30;3.80;;;15.50;99.90;;;;;;4983778;28;20557;-72
2021/07/16 03:33:42;;;;;;;6.07;4.20;;;15.50;99.90;;;;;;4988209;28;20186;-72
2021/07/16 03:36:08;;;;;;;7.07;4.50;;;15.50;99.90;;;;;;4979193;28;20183;-71
2021/07/16 03:38:34;;;;;;;7.43;5.20;;;15.60;99.90;;;;;;4988896;28;20441;-71
2021/07/16 03:41:01;;;;;;;6.43;4.87;;;15.70;99.90;;;;;;4990548;28;20202;-73
2021/07/16 03:43:27;;;;;;;7.03;4.60;;;15.70;99.90;;;;;;4986784;28;20436;-72
2021/07/16 03:45:54;;;;;;;9.10;5.97;;;15.80;99.90;;;;;;4983209;28;20526;-72
2021/07/16 03:48:20;;;;;;;7.50;5.20;;;15.90;99.90;;;;;;4988739;28;20867;-73
2021/07/16 03:50:47;;;;;;;10.20;5.67;;;16.00;99.90;;;;;;4985834;28;20429;-72
2021/07/16 03:53:13;;;;;;;11.40;5.90;;;16.00;99.90;;;;;;4990380;28;20482;-73
2021/07/16 03:55:40;;;;;;;8.20;5.53;;;16.10;99.90;;;;;;4983519;28;20785;-72
2021/07/16 03:58:06;;;;;;;9.53;6.53;;;16.10;99.90;;;;;;4990439;28;20438;-71
2021/07/16 04:00:34;;;;;;;11.60;5.97;;;16.20;99.90;;;;;;4990671;28;20804;-71
2021/07/16 04:03:02;;;;;;;6.73;4.77;;;16.30;99.90;;;;;;4991168;28;20503;-72
2021/07/16 04:05:29;;;;;;;11.43;5.50;;;16.40;99.90;;;;;;4994184;28;20806;-72
2021/07/16 04:08:02;;;;;;;8.30;5.30;;;16.40;99.90;;;;;;4993434;28;20419;-72
2021/07/16 04:10:28;;;;;;;8.27;5.00;;;16.50;99.80;;;;;;4989516;28;20422;-72
2021/07/16 04:12:56;;;;;;;8.10;5.20;;;16.50;99.50;;;;;;4990834;28;20440;-72
2021/07/16 04:15:25;;;;;;;10.53;5.43;;;16.60;99.20;;;;;;4986188;28;20551;-72
2021/07/16 04:17:55;;;;;;;6.17;4.97;;;16.60;99.00;;;;;;4991035;28;20457;-72
2021/07/16 04:20:21;;;;;;;9.50;5.80;;;16.60;99.20;;;;;;4985375;28;20423;-73
2021/07/16 04:22:47;;;;;;;7.00;4.97;;;16.70;99.20;;;;;;4990561;28;20441;-72
2021/07/16 04:25:16;;;;;;;8.10;5.50;;;16.70;99.10;;;;;;4990525;28;20203;-72
2021/07/16 04:27:42;;;;;;;7.50;4.90;;;16.80;99.10;;;;;;4989801;28;20507;-73
2021/07/16 04:30:11;;;;;;;8.27;5.47;;;16.80;99.00;;;;;;4989657;28;20423;-72
2021/07/16 04:32:40;;;;;;;8.40;5.60;;;16.90;98.80;;;;;;4990380;28;20949;-72
2021/07/16 04:35:07;;;;;;;10.83;5.60;;;16.90;98.60;;;;;;4989188;28;20443;-73
2021/07/16 04:37:35;;;;;;;10.97;6.27;;;16.90;98.40;;;;;;4988282;28;20513;-72
2021/07/16 04:40:05;;;;;;;7.50;4.90;;;16.90;98.20;;;;;;4995738;28;20430;-72
2021/07/16 04:42:31;;;;;;;6.97;4.77;;;16.90;98.00;;;;;;4989344;28;20914;-72
2021/07/16 04:44:57;;;;;;;8.43;5.57;;;16.90;97.90;;;;;;4996239;28;20448;-72
2021/07/16 04:47:23;;;;;;;7.60;4.87;;;17.00;97.80;;;;;;4993969;28;20429;-71
2021/07/16 04:49:49;;;;;;;9.73;5.67;;;17.00;97.60;;;;;;4994948;28;20189;-72
2021/07/16 04:52:14;;;;;;;8.03;5.10;;;17.00;97.40;;;;;;4986501;28;20644;-71
2021/07/16 04:54:40;;;;;;;8.60;4.73;;;17.10;97.10;;;;;;4992926;28;20213;-71
2021/07/16 04:57:08;;;;;;;8.67;5.07;;;17.10;96.70;;;;;;4987802;28;20553;-72
2021/07/16 04:59:35;;;;;;;8.20;5.53;;;17.10;96.70;;;;;;4993737;28;20186;-71
2021/07/16 05:02:01;;;;;;;9.30;5.73;;;17.10;96.70;;;;;;4993538;28;20492;-72
2021/07/16 05:04:27;;;;;;;7.20;4.93;;;17.10;96.70;;;;;;4993159;28;20475;-72
2021/07/16 05:06:52;;;;;;;10.57;5.73;;;17.10;96.70;;;;;;4989926;28;20844;-71
2021/07/16 05:09:18;;;;;;;14.33;7.90;;;17.20;96.80;;;;;;4991809;28;20181;-71
2021/07/16 05:11:45;;;;;;;11.00;6.70;;;17.30;96.50;;;;;;4987960;28;20661;-71
2021/07/16 05:14:11;;;;;;;13.20;7.03;;;17.30;96.20;;;;;;4990096;28;20222;-72
2021/07/16 05:16:37;;;;;;;12.17;6.50;;;17.30;96.40;;;;;;4991227;28;20422;-72
2021/07/16 05:19:03;;;;;;;14.53;8.03;;;17.40;96.40;;;;;;4992014;28;20425;-71
2021/07/16 05:21:28;;;;;;;16.83;8.67;;;17.40;96.30;;;;;;4993073;28;20987;-72
2021/07/16 05:23:54;;;;;;;21.23;10.00;;;17.50;96.40;;;;;;4992679;28;20428;-71
2021/07/16 05:26:20;;;;;;;16.00;9.33;;;17.40;96.30;;;;;;4992888;28;20190;-72
2021/07/16 05:28:49;;;;;;;16.40;9.33;;;17.30;96.50;;;;;;4986829;28;20183;-73
2021/07/16 05:31:16;;;;;;;18.70;9.70;;;17.30;96.60;;;;;;4991300;28;20429;-71
2021/07/16 05:33:42;;;;;;;21.37;9.63;;;17.30;96.70;;;;;;4991551;28;20439;-73
2021/07/16 05:36:08;;;;;;;17.10;9.33;;;17.20;96.70;;;;;;4990152;28;20428;-72
2021/07/16 05:38:36;;;;;;;21.93;11.90;;;17.20;96.80;;;;;;4993190;28;20424;-72
2021/07/16 05:41:02;;;;;;;16.10;9.00;;;17.20;97.00;;;;;;4982714;28;20638;-72
2021/07/16 05:43:28;;;;;;;17.70;9.00;;;17.20;97.20;;;;;;4983700;28;20427;-72
2021/07/16 05:45:54;;;;;;;23.07;10.73;;;17.30;97.30;;;;;;4987619;28;20450;-72
2021/07/16 05:48:21;;;;;;;13.87;7.53;;;17.40;97.10;;;;;;4993886;28;20255;-71
2021/07/16 05:50:47;;;;;;;18.70;10.40;;;17.40;97.10;;;;;;4992552;28;20211;-72
2021/07/16 05:53:14;;;;;;;20.40;10.13;;;17.50;96.90;;;;;;4992288;28;20428;-72
2021/07/16 05:55:40;;;;;;;18.63;10.17;;;17.60;96.40;;;;;;4991246;28;20450;-73
2021/07/16 05:58:05;;;;;;;17.73;9.63;;;17.70;96.20;;;;;;4992280;28;20779;-73
2021/07/16 06:00:33;;;;;;;19.73;10.97;;;17.80;96.30;;;;;;4992576;28;20423;-72
2021/07/16 06:02:59;;;;;;;18.30;10.20;;;18.00;96.20;;;;;;4993734;28;20182;-72
2021/07/16 06:05:25;;;;;;;18.60;9.97;;;18.20;95.40;;;;;;4988670;28;20915;-72
2021/07/16 06:07:50;;;;;;;19.73;11.10;;;18.30;94.70;;;;;;4986072;28;20422;-72
2021/07/16 06:10:16;;;;;;;18.47;10.70;;;18.30;93.90;;;;;;4992304;28;20269;-72
2021/07/16 06:12:42;;;;;;;19.60;10.37;;;18.20;94.00;;;;;;4984806;28;20708;-72
2021/07/16 06:15:10;;;;;;;19.03;9.93;;;18.10;94.40;;;;;;4991955;28;20205;-72
2021/07/16 06:17:36;;;;;;;20.10;10.23;;;18.10;94.60;;;;;;4992571;28;20426;-72
2021/07/16 06:20:05;;;;;;;21.43;10.77;;;18.10;94.80;;;;;;4985956;28;20478;-72
2021/07/16 06:22:31;;;;;;;19.27;9.20;;;18.10;94.80;;;;;;4985938;28;20465;-73
2021/07/16 06:24:57;;;;;;;17.70;10.27;;;18.20;94.90;;;;;;4991686;28;20456;-73
2021/07/16 06:27:23;;;;;;;17.57;11.27;;;18.30;94.60;;;;;;4988875;28;20851;-72
2021/07/16 06:29:48;;;;;;;15.93;10.93;;;18.30;94.10;;;;;;4992178;28;20210;-72
2021/07/16 06:32:14;;;;;;;22.23;11.30;;;18.30;94.20;;;;;;4990408;28;20194;-73
2021/07/16 06:34:40;;;;;;;17.63;10.80;;;18.30;94.30;;;;;;4991490;28;20237;-72
2021/07/16 06:37:06;;;;;;;19.07;11.10;;;18.30;94.40;;;;;;4991566;28;20179;-73
2021/07/16 06:39:32;;;;;;;19.70;11.63;;;18.30;94.40;;;;;;4989127;28;20425;-72
2021/07/16 06:41:57;;;;;;;22.87;11.40;;;18.30;94.40;;;;;;4985463;28;20512;-73
2021/07/16 06:44:23;;;;;;;18.23;11.37;;;18.20;94.30;;;;;;4985149;28;20316;-73
2021/07/16 06:46:49;;;;;;;21.17;11.53;;;18.20;94.70;;;;;;4990257;28;20292;-73
2021/07/16 06:49:15;;;;;;;15.57;8.83;;;18.30;94.80;;;;;;4986962;28;20256;-72
2021/07/16 06:51:41;;;;;;;14.27;9.03;;;18.50;94.40;;;;;;4979121;28;20201;-72
2021/07/16 06:54:07;;;;;;;15.60;9.20;;;18.70;93.40;;;;;;4991612;28;20476;-71
2021/07/16 06:56:35;;;;;;;14.43;8.70;;;18.70;92.60;;;;;;4991693;28;20925;-73
2021/07/16 06:59:02;;;;;;;17.77;9.87;;;18.70;92.40;;;;;;4982283;28;20422;-72
2021/07/16 07:01:28;;;;;;;12.90;8.37;;;18.80;92.40;;;;;;4991324;28;20567;-73
2021/07/16 07:03:54;;;;;;;16.90;9.43;;;18.80;92.20;;;;;;4991398;28;20418;-72
2021/07/16 07:06:19;;;;;;;20.60;10.53;;;18.90;91.90;;;;;;4987023;28;20858;-72
2021/07/16 07:08:45;;;;;;;14.60;9.10;;;18.90;91.70;;;;;;4991635;28;20644;-73
2021/07/16 07:11:11;;;;;;;13.90;8.60;;;19.00;91.60;;;;;;4987057;28;20664;-72
2021/07/16 07:13:36;;;;;;;12.70;8.20;;;19.00;91.20;;;;;;4989075;28;20206;-73
2021/07/16 07:16:03;;;;;;;16.10;9.33;;;19.20;91.10;;;;;;4990968;28;20663;-73
2021/07/16 07:18:29;;;;;;;14.13;9.60;;;19.30;91.10;;;;;;4988088;28;20244;-72
2021/07/16 07:20:55;;;;;;;16.20;9.43;;;19.30;91.00;;;;;;4991360;28;20462;-73
2021/07/16 07:23:21;;;;;;;14.00;9.07;;;19.30;90.90;;;;;;4991109;28;20791;-73
2021/07/16 07:25:47;;;;;;;16.93;10.30;;;19.30;90.90;;;;;;4981208;28;20438;-73
2021/07/16 07:28:14;;;;;;;14.50;9.47;;;19.50;90.90;;;;;;4982687;28;20437;-73
2021/07/16 07:30:40;;;;;;;13.87;8.83;;;19.60;90.60;;;;;;4990607;28;20424;-72
2021/07/16 07:33:06;;;;;;;12.60;8.87;;;19.70;89.60;;;;;;4990312;28;20787;-74
2021/07/16 07:35:33;;;;;;;15.20;9.20;;;19.60;89.60;;;;;;4987431;28;20524;-74
2021/07/16 07:38:01;;;;;;;14.53;8.83;;;19.40;90.00;;;;;;4990379;28;20519;-72
2021/07/16 07:40:27;;;;;;;17.20;9.63;;;19.30;90.80;;;;;;4986479;28;20509;-72
2021/07/16 07:42:53;;;;;;;12.67;9.30;;;19.30;90.90;;;;;;4983857;28;20433;-72
2021/07/16 07:45:20;;;;;;;19.43;10.23;;;19.40;90.80;;;;;;4983331;28;20209;-73
2021/07/16 07:47:47;;;;;;;13.80;9.90;;;19.40;90.40;;;;;;4983843;28;20782;-73
2021/07/16 07:50:16;;;;;;;14.80;9.67;;;19.40;90.80;;;;;;4988855;28;20445;-74
2021/07/16 07:52:43;;;;;;;13.00;9.10;;;19.50;90.10;;;;;;4990307;28;20414;-73
2021/07/16 07:55:09;;;;;;;16.17;10.50;;;19.50;90.40;;;;;;4984127;28;20455;-73
2021/07/16 07:57:35;;;;;;;15.40;9.10;;;19.40;90.80;;;;;;4986610;28;20438;-73
2021/07/16 08:00:04;;;;;;;15.97;9.50;;;19.30;90.90;;;;;;4982988;28;20426;-76
2021/07/16 08:02:30;;;;;;;16.03;9.63;;;19.30;90.80;;;;;;4976817;28;20461;-72
2021/07/16 08:04:55;;;;;;;16.10;9.33;;;19.40;91.20;;;;;;4987597;28;21016;-73
2021/07/16 08:07:21;;;;;;;13.23;9.00;;;19.40;90.40;;;;;;4983064;28;20208;-73
2021/07/16 08:09:47;;;;;;;11.23;7.83;;;19.30;91.20;;;;;;4987703;28;20603;-73
2021/07/16 08:12:13;;;;;;;12.43;8.57;;;19.30;90.90;;;;;;4981021;28;20685;-72
2021/07/16 08:14:38;;;;;;;14.50;8.27;;;19.30;90.80;;;;;;4985685;28;20211;-73
2021/07/16 08:17:04;;;;;;;14.17;9.90;;;19.40;90.40;;;;;;4986414;28;20193;-73
2021/07/16 08:19:30;;;;;;;14.57;8.70;;;19.40;90.40;;;;;;4984625;28;20183;-74
2021/07/16 08:21:56;;;;;;;14.60;8.87;;;19.30;89.70;;;;;;4984712;28;20471;-73
2021/07/16 08:24:23;;;;;;;15.27;8.40;;;19.30;88.70;;;;;;4984728;28;20218;-73
2021/07/16 08:26:49;;;;;;;13.40;9.27;;;19.30;89.90;;;;;;4985645;28;20185;-75
2021/07/16 08:29:16;;;;;;;14.73;9.63;;;19.50;89.60;;;;;;4981918;28;20509;-75
2021/07/16 08:31:43;;;;;;;16.73;9.97;;;19.40;89.30;;;;;;4989851;28;20544;-73
2021/07/16 08:34:11;;;;;;;15.37;10.13;;;19.40;89.90;;;;;;4988153;28;20875;-72
2021/07/16 08:36:37;;;;;;;14.23;9.93;;;19.20;90.10;;;;;;4985403;28;20488;-74
2021/07/16 08:39:04;;;;;;;14.60;9.50;;;19.20;90.80;;;;;;4987958;28;20426;-73
2021/07/16 08:41:31;;;;;;;12.47;8.77;;;19.30;90.20;;;;;;4977308;28;20573;-73
2021/07/16 08:43:57;;;;;;;13.90;8.43;;;19.50;90.20;;;;;;4986617;28;20806;-75
2021/07/16 08:46:22;;;;;;;14.63;8.90;;;19.60;87.60;;;;;;4988939;28;20427;-75
2021/07/16 08:48:49;;;;;;;11.27;8.17;;;19.60;87.40;;;;;;4988283;28;20430;-74
2021/07/16 08:51:20;;;;;;;13.83;9.40;;;19.60;88.00;;;;;;4984011;28;20185;-75
2021/07/16 08:53:52;;;;;;;14.30;8.73;;;19.60;87.60;;;;;;4985005;28;21313;-75
2021/07/16 08:56:19;;;;;;;12.80;8.40;;;19.70;87.60;;;;;;4990227;28;20449;-74
2021/07/16 08:58:45;;;;;;;12.00;8.80;;;19.90;87.40;;;;;;4988602;28;20436;-76
2021/07/16 09:01:12;;;;;;;12.50;8.80;;;20.00;86.00;;;;;;4990991;28;20485;-73
2021/07/16 09:04:00;;;;;;;11.67;8.00;;;20.00;85.60;;;;;;4987117;28;20455;-73
2021/07/16 09:06:45;;;;;;;12.23;8.33;;;20.00;85.60;;;;;;4992658;28;20427;-73
2021/07/16 09:09:12;;;;;;;11.60;7.20;;;20.10;85.50;;;;;;4991542;28;20481;-72
2021/07/16 09:11:42;;;;;;;9.87;7.13;;;20.00;84.90;;;;;;4987741;28;20939;-73
2021/07/16 09:14:16;;;;;;;10.53;7.13;;;20.10;84.90;;;;;;4992621;28;20962;-74
2021/07/16 09:16:53;;;;;;;10.30;6.77;;;20.10;84.90;;;;;;4992603;28;20476;-74
2021/07/16 09:19:29;;;;;;;8.57;6.70;;;20.30;85.70;;;;;;4992717;28;20425;-73
2021/07/16 09:22:03;;;;;;;9.23;6.27;;;20.40;85.20;;;;;;4991301;28;20468;-74
2021/07/16 09:24:29;;;;;;;11.13;7.37;;;20.50;84.90;;;;;;4988372;28;20881;-73
2021/07/16 09:26:55;;;;;;;10.43;7.07;;;20.80;83.00;;;;;;4985284;28;20508;-75
2021/07/16 09:29:32;;;;;;;9.00;6.60;;;21.00;81.80;;;;;;4985557;28;20197;-75
2021/07/16 09:32:07;;;;;;;12.37;6.73;;;21.20;80.50;;;;;;4988539;28;20182;-75
2021/07/16 09:34:34;;;;;;;8.50;5.83;;;21.10;79.90;;;;;;4982343;28;20456;-74
2021/07/16 09:37:08;;;;;;;11.20;6.93;;;21.00;80.30;;;;;;4986951;28;20941;-74
2021/07/16 09:39:35;;;;;;;8.33;6.70;;;21.10;80.80;;;;;;4981855;28;20429;-75
2021/07/16 09:42:03;;;;;;;10.33;7.00;;;21.20;80.00;;;;;;4985145;28;20504;-73
2021/07/16 09:44:31;;;;;;;13.10;6.77;;;21.30;79.70;;;;;;4983670;28;20899;-75
2021/07/16 09:47:13;;;;;;;7.50;6.37;;;21.40;78.40;;;;;;4983345;28;20437;-73
2021/07/16 09:49:41;;;;;;;10.53;7.07;;;21.50;78.60;;;;;;4992057;28;20422;-72
2021/07/16 09:52:15;;;;;;;9.73;7.30;;;21.50;79.20;;;;;;4981818;28;20926;-74
2021/07/16 09:55:05;;;;;;;13.07;6.90;;;21.80;78.70;;;;;;4985693;28;20520;-74
2021/07/16 09:57:44;;;;;;;8.70;6.40;;;21.90;77.70;;;;;;4989800;28;20454;-73
2021/07/16 10:00:15;;;;;;;7.83;6.20;;;22.00;76.50;;;;;;4993139;28;20454;-74
2021/07/16 10:02:46;;;;;;;9.60;5.77;;;21.90;76.80;;;;;;4986370;28;20899;-74
2021/07/16 10:05:12;;;;;;;11.80;5.70;;;21.80;77.70;;;;;;4990341;28;20452;-74
2021/07/16 10:07:42;;;;;;;8.50;6.40;;;21.80;77.40;;;;;;4985379;28;20411;-74
2021/07/16 10:10:18;;;;;;;7.77;6.77;;;21.80;77.70;;;;;;4985290;28;20443;-74
2021/07/16 10:12:45;;;;;;;8.07;5.57;;;21.90;77.40;;;;;;4983525;28;20498;-75
2021/07/16 10:15:13;;;;;;;6.87;5.23;;;21.80;76.40;;;;;;4982343;28;20463;-74
2021/07/16 10:17:39;;;;;;;6.80;5.30;;;21.80;76.40;;;;;;4990277;28;21004;-73
2021/07/16 10:20:10;;;;;;;6.60;4.50;;;21.90;75.20;;;;;;4981595;28;20811;-73
2021/07/16 10:22:39;;;;;;;7.00;5.17;;;21.90;76.10;;;;;;4990186;28;20478;-74
2021/07/16 10:25:08;;;;;;;6.07;5.50;;;22.30;75.70;;;;;;4987092;28;20860;-75
2021/07/16 10:27:34;;;;;;;13.20;7.10;;;22.60;73.60;;;;;;4985992;28;20431;-74
2021/07/16 10:30:10;;;;;;;5.93;4.33;;;22.80;73.60;;;;;;4987705;28;20417;-74
2021/07/16 10:32:43;;;;;;;4.77;3.90;;;23.20;70.70;;;;;;4987324;28;20452;-74
2021/07/16 10:35:13;;;;;;;6.83;4.63;;;23.30;69.20;;;;;;4984821;28;20444;-74
2021/07/16 10:37:39;;;;;;;5.23;4.43;;;23.30;69.40;;;;;;4984887;28;20790;-74
2021/07/16 10:40:05;;;;;;;4.47;3.77;;;23.20;69.20;;;;;;4987160;28;20417;-74
2021/07/16 10:42:34;;;;;;;6.17;4.30;;;23.50;69.80;;;;;;4984325;28;20625;-74
2021/07/16 10:45:03;;;;;;;8.40;4.30;;;23.90;66.60;;;;;;4990084;28;20443;-73
2021/07/16 10:47:50;;;;;;;5.60;4.90;;;23.60;68.00;;;;;;4983429;28;20421;-74
2021/07/16 10:50:28;;;;;;;5.13;3.80;;;23.40;69.80;;;;;;4991089;28;20533;-73
2021/07/16 10:52:54;;;;;;;4.33;3.70;;;23.30;69.70;;;;;;4991057;28;21377;-72
2021/07/16 10:55:39;;;;;;;4.53;3.50;;;23.40;69.40;;;;;;4988393;28;20466;-72
2021/07/16 10:58:18;;;;;;;3.60;3.20;;;23.30;68.50;;;;;;4986593;28;20539;-71
2021/07/16 11:00:44;;;;;;;5.17;3.77;;;23.60;68.30;;;;;;4978624;28;20590;-72
2021/07/16 11:03:12;;;;;;;5.50;3.83;;;24.00;67.50;;;;;;4982541;28;20950;-72
2021/07/16 11:05:44;;;;;;;3.73;3.27;;;24.00;67.90;;;;;;4983573;28;20295;-72
2021/07/16 11:08:36;;;;;;;5.50;3.73;;;24.20;67.00;;;;;;4979966;28;20438;-73
2021/07/16 11:11:09;;;;;;;4.70;3.70;;;24.30;67.00;;;;;;4983457;28;20429;-73
2021/07/16 11:13:50;;;;;;;7.37;4.37;;;24.00;67.60;;;;;;4984184;28;20775;-73
2021/07/16 11:16:19;;;;;;;4.97;3.03;;;23.70;69.10;;;;;;4980533;28;20804;-73
2021/07/16 11:19:11;;;;;;;5.20;3.37;;;24.00;68.50;;;;;;4988701;28;20435;-73
2021/07/16 11:21:40;;;;;;;3.50;3.13;;;23.90;68.50;;;;;;4978189;28;20686;-73
2021/07/16 11:24:07;;;;;;;3.70;3.37;;;24.10;68.00;;;;;;4981040;28;20466;-71
2021/07/16 11:26:45;;;;;;;3.37;3.20;;;24.40;66.40;;;;;;4987274;28;20435;-74
2021/07/16 11:29:11;;;;;;;8.63;3.43;;;24.50;65.60;;;;;;4979422;28;20804;-74
2021/07/16 11:31:37;;;;;;;5.77;3.10;;;24.40;65.60;;;;;;4983425;28;20429;-73
2021/07/16 11:34:05;;;;;;;6.53;3.17;;;24.10;66.70;;;;;;4986156;28;20439;-74
2021/07/16 11:36:31;;;;;;;3.87;2.80;;;23.60;66.60;;;;;;4982990;28;20278;-74
2021/07/16 11:38:57;;;;;;;10.10;3.23;;;23.70;67.70;;;;;;4984624;28;20926;-73
2021/07/16 11:41:34;;;;;;;4.33;3.03;;;24.00;67.30;;;;;;4979162;28;20480;-74
2021/07/16 11:44:00;;;;;;;3.30;3.13;;;24.20;66.00;;;;;;4983339;28;20425;-73
2021/07/16 11:46:30;;;;;;;6.37;2.63;;;24.30;64.40;;;;;;4987431;28;20510;-74
2021/07/16 11:48:56;;;;;;;3.40;2.93;;;24.00;65.10;;;;;;4986778;28;20424;-73
2021/07/16 11:51:31;;;;;;;3.53;2.80;;;23.80;66.00;;;;;;4989096;28;20423;-75
2021/07/16 11:54:23;;;;;;;3.30;2.50;;;24.00;66.60;;;;;;4987615;28;20444;-74
2021/07/16 11:56:54;;;;;;;3.60;2.93;;;23.90;66.70;;;;;;4986534;28;20462;-73
2021/07/16 11:59:24;;;;;;;3.13;2.80;;;23.90;66.70;;;;;;4982451;28;20931;-73
2021/07/16 12:02:10;;;;;;;4.80;3.00;;;23.80;66.40;;;;;;4987484;28;20478;-74
2021/07/16 12:04:37;;;;;;;5.70;2.60;;;24.00;65.80;;;;;;4987966;28;20494;-73
2021/07/16 12:07:04;;;;;;;3.77;3.13;;;24.10;65.40;;;;;;4988406;28;20413;-74
2021/07/16 12:09:33;;;;;;;4.67;2.70;;;24.10;65.40;;;;;;4983965;28;20462;-73
2021/07/16 12:12:14;;;;;;;6.23;4.20;;;24.10;65.80;;;;;;4991388;28;20432;-76
2021/07/16 12:14:59;;;;;;;3.60;2.73;;;24.40;65.30;;;;;;4985848;28;20452;-74
2021/07/16 12:17:24;;;;;;;3.73;2.57;;;24.50;64.70;;;;;;4990398;28;20419;-75
2021/07/16 12:19:52;;;;;;;3.93;2.57;;;24.40;63.20;;;;;;4994608;28;20455;-73
2021/07/16 12:22:23;;;;;;;5.07;2.57;;;24.30;63.70;;;;;;4995014;28;20226;-74
2021/07/16 12:24:50;;;;;;;3.80;2.90;;;25.00;62.30;;;;;;4984559;28;20556;-74
2021/07/16 12:27:17;;;;;;;4.77;3.20;;;25.00;63.10;;;;;;4994115;28;20457;-73
2021/07/16 12:29:44;;;;;;;5.87;3.03;;;25.30;62.20;;;;;;4999491;28;20463;-74
2021/07/16 12:32:11;;;;;;;3.20;2.77;;;25.60;60.10;;;;;;4995771;28;20484;-73
2021/07/16 12:34:44;;;;;;;4.43;3.50;;;25.60;61.00;;;;;;4996402;28;20465;-73
2021/07/16 12:37:17;;;;;;;4.63;2.80;;;25.50;61.20;;;;;;4995606;28;20502;-73
2021/07/16 12:39:45;;;;;;;3.40;3.17;;;25.40;61.90;;;;;;4993982;28;20475;-74
2021/07/16 12:42:20;;;;;;;3.87;3.10;;;25.10;61.70;;;;;;4990854;28;20468;-73
2021/07/16 12:45:22;;;;;;;7.23;3.50;;;24.60;64.20;;;;;;4987754;28;20530;-74
2021/07/16 12:47:53;;;;;;;3.70;3.20;;;24.50;65.30;;;;;;4981751;28;20847;-75
2021/07/16 12:50:22;;;;;;;5.87;4.13;;;24.30;66.00;;;;;;4984533;28;20430;-74